Time;durP1;ratioP1;P1;durP2;ratioP2;P2;SDS_P1;SDS_P2;PMS_P1;PMS_P2;Temp;Humidity;BMP_temperature;BMP_pressure;BME280_temperature;BME280_humidity;BME280_pressure;Samples;Min_cycle;Max_cycle;Signal;HPM_P1;HPM_P2
2022/01/16 00:00:17;;;;;;;67.50;35.28;;;;;;;;;;6260318;28;20156;-70
2022/01/16 00:06:39;;;;;;;38.70;23.08;;;;;;;;;;6259560;28;20728;-67
2022/01/16 00:09:40;;;;;;;35.00;22.00;;;;;;;;;;6259049;28;20182;-67
2022/01/16 00:12:47;;;;;;;36.92;21.80;;;;;;;;;;6258294;28;20065;-67
2022/01/16 00:15:50;;;;;;;38.25;21.98;;;;;;;;;;6258306;28;20045;-67
2022/01/16 00:18:52;;;;;;;38.80;21.95;;;;;;;;;;6265984;28;20531;-67
2022/01/16 00:21:54;;;;;;;35.85;22.85;;;;;;;;;;6259830;28;20450;-66
2022/01/16 00:24:56;;;;;;;43.97;22.92;;;;;;;;;;6258499;28;20037;-68
2022/01/16 00:27:57;;;;;;;37.30;22.30;;;;;;;;;;6256909;28;20155;-66
2022/01/16 00:31:00;;;;;;;37.58;22.67;;;;;;;;;;6260522;28;20142;-66
2022/01/16 00:34:02;;;;;;;36.63;21.58;;;;;;;;;;6263799;28;20131;-67
2022/01/16 00:37:04;;;;;;;45.85;22.02;;;;;;;;;;6255558;28;20520;-67
2022/01/16 00:40:06;;;;;;;35.97;22.00;;;;;;;;;;6260311;28;20080;-67
2022/01/16 00:43:08;;;;;;;42.50;24.58;;;;;;;;;;6260489;28;20136;-67
2022/01/16 00:46:11;;;;;;;40.08;23.65;;;;;;;;;;6261668;28;20133;-67
2022/01/16 00:49:13;;;;;;;43.38;22.80;;;;;;;;;;6265267;28;20235;-67
2022/01/16 00:52:14;;;;;;;41.30;22.77;;;;;;;;;;6263269;28;20127;-67
2022/01/16 00:55:16;;;;;;;37.22;22.30;;;;;;;;;;6258873;28;20090;-67
2022/01/16 00:58:17;;;;;;;37.83;22.50;;;;;;;;;;6266327;28;20118;-67
2022/01/16 01:01:20;;;;;;;34.45;21.38;;;;;;;;;;6261191;28;20053;-66
2022/01/16 01:04:22;;;;;;;39.28;22.88;;;;;;;;;;6257936;28;20053;-66
2022/01/16 01:07:23;;;;;;;38.47;21.65;;;;;;;;;;6260237;28;20504;-65
2022/01/16 01:10:31;;;;;;;38.33;22.13;;;;;;;;;;6255736;28;20112;-66
2022/01/16 01:13:44;;;;;;;39.78;22.58;;;;;;;;;;6251223;28;20041;-67
2022/01/16 01:16:52;;;;;;;36.45;22.40;;;;;;;;;;6250857;28;20581;-66
2022/01/16 01:19:53;;;;;;;45.28;22.55;;;;;;;;;;6246163;28;20434;-66
2022/01/16 01:22:55;;;;;;;42.72;22.58;;;;;;;;;;6252248;28;20049;-67
2022/01/16 01:25:56;;;;;;;36.60;21.77;;;;;;;;;;6253922;28;20110;-66
2022/01/16 01:28:58;;;;;;;38.05;22.35;;;;;;;;;;6249599;28;20098;-67
2022/01/16 01:32:01;;;;;;;40.97;23.85;;;;;;;;;;6254703;28;20051;-67
2022/01/16 01:35:03;;;;;;;39.60;22.20;;;;;;;;;;6250474;28;20068;-67
2022/01/16 01:38:07;;;;;;;38.97;22.63;;;;;;;;;;6253356;28;20095;-66
2022/01/16 01:41:09;;;;;;;35.75;21.60;;;;;;;;;;6256629;28;20060;-67
2022/01/16 01:51:05;;;;;;;41.03;22.63;;;;;;;;;;6252851;28;20049;-66
2022/01/16 01:54:06;;;;;;;40.40;22.67;;;;;;;;;;6248797;28;20425;-67
2022/01/16 01:57:08;;;;;;;37.00;21.88;;;;;;;;;;6250190;28;20057;-66
2022/01/16 02:00:17;;;;;;;38.90;23.17;;;;;;;;;;6256631;28;20140;-66
2022/01/16 02:03:26;;;;;;;43.42;23.35;;;;;;;;;;6253762;28;20523;-66
2022/01/16 02:06:30;;;;;;;37.58;22.38;;;;;;;;;;6263683;28;20041;-67
2022/01/16 02:09:32;;;;;;;39.67;22.23;;;;;;;;;;6251781;28;20440;-66
2022/01/16 02:12:36;;;;;;;38.42;23.10;;;;;;;;;;6250298;28;20393;-67
2022/01/16 02:29:39;;;;;;;42.35;22.88;;;;;;;;;;6256829;28;20037;-67
2022/01/16 02:33:00;;;;;;;40.33;22.50;;;;;;;;;;6255465;28;20060;-66
2022/01/16 02:36:01;;;;;;;46.42;22.83;;;;;;;;;;6253265;28;20143;-67
2022/01/16 02:39:10;;;;;;;45.92;25.00;;;;;;;;;;6260718;28;20072;-67
2022/01/16 02:42:13;;;;;;;37.85;22.95;;;;;;;;;;6272811;28;20110;-66
2022/01/16 02:45:27;;;;;;;36.25;22.02;;;;;;;;;;6255974;28;20172;-66
2022/01/16 02:48:29;;;;;;;38.23;22.33;;;;;;;;;;6268108;28;20508;-67
2022/01/16 02:51:30;;;;;;;38.13;22.83;;;;;;;;;;6253295;28;20144;-66
2022/01/16 02:54:36;;;;;;;37.38;22.42;;;;;;;;;;6255153;28;20137;-67
2022/01/16 02:57:37;;;;;;;32.97;21.42;;;;;;;;;;6246423;28;20053;-67
2022/01/16 03:00:39;;;;;;;33.92;21.02;;;;;;;;;;6255223;28;20084;-67
2022/01/16 03:03:41;;;;;;;35.10;21.70;;;;;;;;;;6262536;28;20056;-66
2022/01/16 03:06:43;;;;;;;36.10;21.25;;;;;;;;;;6258752;28;20045;-66
2022/01/16 03:10:07;;;;;;;33.72;21.85;;;;;;;;;;6259033;28;20505;-66
2022/01/16 03:13:08;;;;;;;32.63;21.47;;;;;;;;;;6260650;28;20057;-67
2022/01/16 03:16:10;;;;;;;35.30;21.42;;;;;;;;;;6256037;28;20064;-67
2022/01/16 03:22:31;;;;;;;38.75;21.55;;;;;;;;;;6257607;28;20041;-67
2022/01/16 03:25:34;;;;;;;33.95;21.15;;;;;;;;;;6254576;28;20128;-67
2022/01/16 03:28:36;;;;;;;37.20;22.00;;;;;;;;;;6257949;28;20202;-67
2022/01/16 03:31:37;;;;;;;35.22;21.60;;;;;;;;;;6258266;28;20048;-66
2022/01/16 03:34:39;;;;;;;36.50;21.88;;;;;;;;;;6255313;28;20045;-66
2022/01/16 03:37:41;;;;;;;37.47;22.08;;;;;;;;;;6263010;28;20548;-66
2022/01/16 03:40:44;;;;;;;40.33;22.08;;;;;;;;;;6263209;28;20405;-68
2022/01/16 03:43:46;;;;;;;35.28;21.70;;;;;;;;;;6254033;28;20061;-67
2022/01/16 03:46:47;;;;;;;34.17;22.63;;;;;;;;;;6261019;28;20056;-66
2022/01/16 03:49:49;;;;;;;39.33;22.85;;;;;;;;;;6265280;28;20375;-67
2022/01/16 03:52:51;;;;;;;39.72;22.88;;;;;;;;;;6261191;28;20136;-66
2022/01/16 03:55:53;;;;;;;38.67;22.35;;;;;;;;;;6261535;28;20168;-67
2022/01/16 03:58:55;;;;;;;36.13;23.40;;;;;;;;;;6265830;28;20155;-66
2022/01/16 04:01:57;;;;;;;39.17;22.95;;;;;;;;;;6261461;28;20107;-66
2022/01/16 04:04:58;;;;;;;38.00;22.02;;;;;;;;;;6257501;28;20231;-66
2022/01/16 04:08:02;;;;;;;38.67;23.10;;;;;;;;;;6257939;28;20599;-66
2022/01/16 04:11:05;;;;;;;36.85;22.65;;;;;;;;;;6256805;28;20134;-66
2022/01/16 04:14:09;;;;;;;41.58;22.63;;;;;;;;;;6258041;28;20085;-67
2022/01/16 04:17:11;;;;;;;;;;;;;;;;;;6254218;28;20131;-67
2022/01/16 04:20:16;;;;;;;39.78;22.33;;;;;;;;;;6256940;28;19972;-67
2022/01/16 04:23:17;;;;;;;36.83;22.30;;;;;;;;;;6259931;28;20041;-66
2022/01/16 04:26:21;;;;;;;35.55;22.55;;;;;;;;;;6264140;28;20049;-66
2022/01/16 04:29:22;;;;;;;41.40;24.73;;;;;;;;;;6262782;28;20511;-67
2022/01/16 04:32:24;;;;;;;39.85;22.33;;;;;;;;;;6264217;28;20555;-67
2022/01/16 04:35:25;;;;;;;39.40;23.52;;;;;;;;;;6257077;28;20051;-64
2022/01/16 04:38:27;;;;;;;40.00;22.45;;;;;;;;;;6258308;28;20131;-66
2022/01/16 04:44:51;;;;;;;39.05;23.55;;;;;;;;;;6260760;28;20041;-67
2022/01/16 04:47:53;;;;;;;37.53;23.75;;;;;;;;;;6259274;28;20555;-66
2022/01/16 04:50:54;;;;;;;35.53;22.17;;;;;;;;;;6258068;28;20413;-66
2022/01/16 04:53:56;;;;;;;43.35;24.15;;;;;;;;;;6256605;28;20128;-66
2022/01/16 04:56:59;;;;;;;38.50;23.10;;;;;;;;;;6251267;28;20132;-66
2022/01/16 05:00:01;;;;;;;38.83;23.73;;;;;;;;;;6254046;28;20084;-67
2022/01/16 05:03:02;;;;;;;37.20;23.45;;;;;;;;;;6259846;28;20135;-66
2022/01/16 05:06:05;;;;;;;37.42;24.17;;;;;;;;;;6255613;28;20041;-66
2022/01/16 05:09:07;;;;;;;41.70;24.23;;;;;;;;;;6259776;28;20089;-66
2022/01/16 05:12:23;;;;;;;37.30;23.27;;;;;;;;;;6260157;28;20065;-66
2022/01/16 05:18:44;;;;;;;40.50;23.25;;;;;;;;;;6253838;28;20053;-66
2022/01/16 05:21:46;;;;;;;37.97;23.10;;;;;;;;;;6259530;28;20114;-67
2022/01/16 05:24:47;;;;;;;39.22;23.13;;;;;;;;;;6255793;28;20136;-65
2022/01/16 05:27:50;;;;;;;41.55;23.02;;;;;;;;;;6258325;28;20073;-66
2022/01/16 05:30:52;;;;;;;37.63;22.98;;;;;;;;;;6254488;28;20179;-66
2022/01/16 05:33:53;;;;;;;40.30;23.95;;;;;;;;;;6257378;28;20119;-66
2022/01/16 05:36:55;;;;;;;40.85;23.20;;;;;;;;;;6253434;28;20081;-67
2022/01/16 05:39:56;;;;;;;36.22;23.75;;;;;;;;;;6258497;28;20126;-66
2022/01/16 05:43:01;;;;;;;44.22;24.05;;;;;;;;;;6256354;28;20048;-66
2022/01/16 05:46:02;;;;;;;39.30;22.38;;;;;;;;;;6254136;28;20049;-66
2022/01/16 05:49:04;;;;;;;39.47;23.20;;;;;;;;;;6256411;28;20667;-66
2022/01/16 05:52:06;;;;;;;40.38;23.42;;;;;;;;;;6262492;28;20056;-66
2022/01/16 05:55:09;;;;;;;41.72;23.48;;;;;;;;;;6262317;28;20049;-66
2022/01/16 05:58:12;;;;;;;41.13;23.17;;;;;;;;;;6262937;28;20130;-66
2022/01/16 06:01:13;;;;;;;43.00;23.38;;;;;;;;;;6275163;28;20187;-66
2022/01/16 06:04:15;;;;;;;34.83;22.52;;;;;;;;;;6264786;28;20126;-66
2022/01/16 06:07:17;;;;;;;37.78;23.55;;;;;;;;;;6258714;28;20506;-66
2022/01/16 06:10:18;;;;;;;34.67;21.50;;;;;;;;;;6259512;28;20140;-66
2022/01/16 06:13:21;;;;;;;38.50;24.10;;;;;;;;;;6261221;28;20176;-66
2022/01/16 06:16:23;;;;;;;42.97;24.08;;;;;;;;;;6257161;28;20053;-66
2022/01/16 06:19:24;;;;;;;42.58;23.30;;;;;;;;;;6261819;28;20077;-66
2022/01/16 06:22:26;;;;;;;35.63;21.98;;;;;;;;;;6262066;28;20483;-66
2022/01/16 06:25:28;;;;;;;36.95;22.55;;;;;;;;;;6257749;28;20049;-66
2022/01/16 06:28:31;;;;;;;38.90;22.67;;;;;;;;;;6259836;28;20124;-66
2022/01/16 06:31:33;;;;;;;39.27;23.37;;;;;;;;;;6255971;28;20393;-66
2022/01/16 06:34:34;;;;;;;37.08;22.80;;;;;;;;;;6259414;28;20136;-66
2022/01/16 06:37:36;;;;;;;37.67;23.60;;;;;;;;;;6265143;28;20528;-66
2022/01/16 06:40:38;;;;;;;40.33;23.55;;;;;;;;;;6251811;28;20060;-66
2022/01/16 06:43:41;;;;;;;33.00;22.38;;;;;;;;;;6257130;28;20127;-66
2022/01/16 06:46:43;;;;;;;36.83;21.45;;;;;;;;;;6251022;28;20120;-66
2022/01/16 06:49:44;;;;;;;37.63;22.30;;;;;;;;;;6254400;28;20575;-66
2022/01/16 06:52:46;;;;;;;37.05;20.90;;;;;;;;;;6258789;28;20132;-66
2022/01/16 06:55:47;;;;;;;34.67;22.27;;;;;;;;;;6255486;28;20069;-65
2022/01/16 06:58:51;;;;;;;32.50;20.35;;;;;;;;;;6259707;28;20115;-66
2022/01/16 07:01:52;;;;;;;35.53;22.43;;;;;;;;;;6257362;28;20128;-66
2022/01/16 07:04:54;;;;;;;36.33;21.40;;;;;;;;;;6258631;28;20068;-66
2022/01/16 07:07:55;;;;;;;31.20;20.70;;;;;;;;;;6264022;28;20073;-66
2022/01/16 07:10:58;;;;;;;36.03;21.42;;;;;;;;;;6255141;28;20544;-66
2022/01/16 07:14:01;;;;;;;36.60;20.95;;;;;;;;;;6258120;28;20050;-65
2022/01/16 07:17:03;;;;;;;32.40;21.10;;;;;;;;;;6265227;28;20052;-66
2022/01/16 07:20:05;;;;;;;32.47;20.13;;;;;;;;;;6258657;28;20461;-66
2022/01/16 07:23:07;;;;;;;33.85;20.95;;;;;;;;;;6253149;28;20123;-65
2022/01/16 07:26:08;;;;;;;30.67;19.80;;;;;;;;;;6262483;28;20076;-65
2022/01/16 07:29:12;;;;;;;38.78;20.58;;;;;;;;;;6263509;28;20049;-66
2022/01/16 07:32:13;;;;;;;32.50;20.70;;;;;;;;;;6265000;28;20092;-66
2022/01/16 07:35:15;;;;;;;32.67;19.52;;;;;;;;;;6259221;28;20127;-66
2022/01/16 07:38:17;;;;;;;28.50;18.40;;;;;;;;;;6257632;28;20124;-65
2022/01/16 07:41:18;;;;;;;31.02;18.85;;;;;;;;;;6258040;28;20129;-65
2022/01/16 07:44:21;;;;;;;31.35;19.92;;;;;;;;;;6260445;28;20498;-66
2022/01/16 07:47:23;;;;;;;29.73;20.30;;;;;;;;;;6260568;28;20184;-65
2022/01/16 07:50:25;;;;;;;31.90;20.70;;;;;;;;;;6262994;28;20134;-65
2022/01/16 07:53:26;;;;;;;31.60;20.13;;;;;;;;;;6259516;28;20131;-65
2022/01/16 07:56:28;;;;;;;31.27;20.50;;;;;;;;;;6260535;28;20080;-65
2022/01/16 07:59:31;;;;;;;32.80;20.20;;;;;;;;;;6256875;28;20124;-66
2022/01/16 08:02:32;;;;;;;32.25;21.73;;;;;;;;;;6257860;28;20136;-65
2022/01/16 08:05:34;;;;;;;36.95;22.73;;;;;;;;;;6261266;28;20512;-66
2022/01/16 08:08:36;;;;;;;36.10;22.02;;;;;;;;;;6265375;28;20292;-65
2022/01/16 08:11:37;;;;;;;32.92;21.67;;;;;;;;;;6261603;28;20495;-65
2022/01/16 08:14:40;;;;;;;31.10;21.40;;;;;;;;;;6262653;28;20057;-65
2022/01/16 08:17:42;;;;;;;32.67;20.90;;;;;;;;;;6262575;28;20080;-64
2022/01/16 08:20:44;;;;;;;32.03;20.38;;;;;;;;;;6262093;28;20164;-65
2022/01/16 08:23:45;;;;;;;31.15;20.55;;;;;;;;;;6259505;28;20175;-65
2022/01/16 08:26:47;;;;;;;31.23;21.05;;;;;;;;;;6260325;28;20118;-64
2022/01/16 08:29:50;;;;;;;34.13;20.60;;;;;;;;;;6260243;28;20130;-65
2022/01/16 08:32:52;;;;;;;36.03;21.33;;;;;;;;;;6260482;28;20092;-65
2022/01/16 08:35:54;;;;;;;31.13;20.98;;;;;;;;;;6257392;28;20064;-65
2022/01/16 08:38:56;;;;;;;34.78;22.63;;;;;;;;;;6255879;28;20054;-65
2022/01/16 08:41:58;;;;;;;36.08;21.20;;;;;;;;;;6258282;28;20493;-64
2022/01/16 08:45:01;;;;;;;34.40;21.98;;;;;;;;;;6259458;28;20138;-65
2022/01/16 08:48:02;;;;;;;33.58;21.70;;;;;;;;;;6260245;28;20128;-65
2022/01/16 08:51:04;;;;;;;31.88;23.00;;;;;;;;;;6255162;28;20046;-65
2022/01/16 08:54:06;;;;;;;38.00;24.52;;;;;;;;;;6254591;28;20053;-65
2022/01/16 08:57:07;;;;;;;38.08;25.58;;;;;;;;;;6252017;28;20168;-65
2022/01/16 09:00:11;;;;;;;36.00;25.88;;;;;;;;;;6257934;28;20301;-64
2022/01/16 09:03:12;;;;;;;36.95;25.65;;;;;;;;;;6255967;28;20183;-65
2022/01/16 09:06:14;;;;;;;36.85;25.83;;;;;;;;;;6256639;28;20080;-65
2022/01/16 09:09:16;;;;;;;40.40;26.88;;;;;;;;;;6255409;28;20133;-65
2022/01/16 09:12:17;;;;;;;36.03;25.55;;;;;;;;;;6256627;28;20126;-65
2022/01/16 09:15:20;;;;;;;35.78;25.85;;;;;;;;;;6251352;28;20310;-67
2022/01/16 09:18:22;;;;;;;38.47;27.10;;;;;;;;;;6251667;28;20187;-66
2022/01/16 09:21:24;;;;;;;41.38;26.98;;;;;;;;;;6256262;28;20467;-66
2022/01/16 09:24:25;;;;;;;34.72;26.88;;;;;;;;;;6254243;28;20100;-67
2022/01/16 09:27:27;;;;;;;40.72;27.65;;;;;;;;;;6253972;28;20624;-67
2022/01/16 09:30:31;;;;;;;37.70;27.58;;;;;;;;;;6257299;28;20127;-67
2022/01/16 09:33:33;;;;;;;37.65;28.27;;;;;;;;;;6257708;28;20061;-67
2022/01/16 09:36:35;;;;;;;40.95;28.27;;;;;;;;;;6254553;28;20048;-66
2022/01/16 09:39:36;;;;;;;36.72;28.63;;;;;;;;;;6253595;28;20449;-67
2022/01/16 09:42:38;;;;;;;37.22;27.40;;;;;;;;;;6252286;28;20560;-66
2022/01/16 09:45:41;;;;;;;34.47;26.98;;;;;;;;;;6257341;28;20099;-67
2022/01/16 09:48:43;;;;;;;34.30;26.75;;;;;;;;;;6248886;28;20049;-66
2022/01/16 09:51:45;;;;;;;40.40;28.27;;;;;;;;;;6253920;28;20053;-66
2022/01/16 09:54:47;;;;;;;36.55;26.95;;;;;;;;;;6252648;28;20565;-67
2022/01/16 09:57:49;;;;;;;34.47;26.80;;;;;;;;;;6251732;28;20378;-67
2022/01/16 10:00:53;;;;;;;36.88;26.92;;;;;;;;;;6267215;28;20049;-67
2022/01/16 10:03:54;;;;;;;33.97;26.63;;;;;;;;;;6262871;28;20053;-67
2022/01/16 10:06:56;;;;;;;34.58;27.17;;;;;;;;;;6251377;28;20096;-67
2022/01/16 10:10:09;;;;;;;31.90;26.77;;;;;;;;;;6256783;28;20187;-65
2022/01/16 10:13:21;;;;;;;36.50;27.13;;;;;;;;;;6250936;28;20512;-65
2022/01/16 10:16:27;;;;;;;35.75;27.85;;;;;;;;;;6251939;28;20057;-67
2022/01/16 10:19:31;;;;;;;34.42;28.63;;;;;;;;;;6250873;28;20127;-67
2022/01/16 10:22:38;;;;;;;34.80;28.63;;;;;;;;;;6249107;28;20056;-67
2022/01/16 10:25:41;;;;;;;36.33;28.23;;;;;;;;;;6254883;28;20408;-64
2022/01/16 10:28:43;;;;;;;;;;;;;;;;;;6253932;28;20420;-66
2022/01/16 10:31:46;;;;;;;38.60;29.80;;;;;;;;;;6250673;28;20487;-66
2022/01/16 10:34:50;;;;;;;35.28;29.70;;;;;;;;;;6251084;28;20121;-66
2022/01/16 10:37:53;;;;;;;37.63;29.48;;;;;;;;;;6253101;28;20478;-67
2022/01/16 10:40:57;;;;;;;37.47;30.83;;;;;;;;;;6251823;28;20536;-67
2022/01/16 10:43:58;;;;;;;39.42;30.33;;;;;;;;;;6255505;28;20134;-67
2022/01/16 10:47:25;;;;;;;39.45;33.22;;;;;;;;;;6253591;28;20582;-67
2022/01/16 10:50:28;;;;;;;42.72;34.53;;;;;;;;;;6253756;28;20568;-67
2022/01/16 10:53:31;;;;;;;40.88;32.42;;;;;;;;;;6259949;28;20525;-66
2022/01/16 10:56:34;;;;;;;38.70;34.25;;;;;;;;;;6256052;28;20614;-67
2022/01/16 10:59:36;;;;;;;41.20;34.17;;;;;;;;;;6250759;28;20053;-65
2022/01/16 11:02:40;;;;;;;39.70;33.80;;;;;;;;;;6252540;28;20479;-67
2022/01/16 11:05:44;;;;;;;40.75;33.83;;;;;;;;;;6250635;28;20112;-67
2022/01/16 11:08:50;;;;;;;42.08;33.20;;;;;;;;;;6254809;28;20046;-64
2022/01/16 11:11:59;;;;;;;42.10;34.58;;;;;;;;;;6258016;28;20128;-64
2022/01/16 11:15:01;;;;;;;49.83;35.78;;;;;;;;;;6260707;28;20053;-65
2022/01/16 11:18:04;;;;;;;43.80;35.50;;;;;;;;;;6253765;28;20132;-65
2022/01/16 11:21:14;;;;;;;;;;;;;;;;;;6255304;28;20052;-65
2022/01/16 11:24:28;;;;;;;43.47;34.72;;;;;;;;;;6259906;28;20454;-64
2022/01/16 11:27:30;;;;;;;46.28;35.40;;;;;;;;;;6256805;28;20041;-64
2022/01/16 11:30:32;;;;;;;48.22;37.83;;;;;;;;;;6260990;28;20119;-65
2022/01/16 11:33:35;;;;;;;44.72;36.05;;;;;;;;;;6259179;28;20073;-65
2022/01/16 11:36:37;;;;;;;43.28;36.70;;;;;;;;;;6260261;28;20103;-65
2022/01/16 11:39:39;;;;;;;43.55;36.75;;;;;;;;;;6258813;28;20045;-65
2022/01/16 11:42:41;;;;;;;43.65;36.80;;;;;;;;;;6254948;28;20050;-64
2022/01/16 11:45:47;;;;;;;45.10;37.72;;;;;;;;;;6258243;28;20077;-65
2022/01/16 11:48:53;;;;;;;42.40;34.88;;;;;;;;;;6257768;28;20099;-65
2022/01/16 11:52:05;;;;;;;43.70;35.55;;;;;;;;;;6260685;28;20060;-64
2022/01/16 11:55:08;;;;;;;49.90;35.05;;;;;;;;;;6257459;28;20056;-65
2022/01/16 11:58:09;;;;;;;49.22;33.50;;;;;;;;;;6257793;28;20517;-66
2022/01/16 12:01:43;;;;;;;46.80;33.85;;;;;;;;;;6253085;28;20119;-64
2022/01/16 12:04:57;;;;;;;46.15;33.60;;;;;;;;;;6255146;28;20068;-63
2022/01/16 12:08:10;;;;;;;40.15;31.60;;;;;;;;;;6257710;28;20136;-63
2022/01/16 12:11:36;;;;;;;40.78;31.63;;;;;;;;;;6258313;28;20445;-64
2022/01/16 12:14:48;;;;;;;42.97;32.42;;;;;;;;;;6259267;28;20428;-64
2022/01/16 12:17:51;;;;;;;43.03;33.67;;;;;;;;;;6253386;28;20572;-64
2022/01/16 12:20:54;;;;;;;43.13;32.15;;;;;;;;;;6257215;28;20130;-64
2022/01/16 12:23:55;;;;;;;46.13;34.30;;;;;;;;;;6257410;28;20501;-62
2022/01/16 12:27:22;;;;;;;44.63;34.45;;;;;;;;;;6254522;28;20515;-64
2022/01/16 12:30:41;;;;;;;44.35;34.13;;;;;;;;;;6254976;28;20174;-65
2022/01/16 12:33:47;;;;;;;41.78;32.10;;;;;;;;;;6263056;28;20037;-64
2022/01/16 12:36:49;;;;;;;42.00;33.33;;;;;;;;;;6257542;28;20526;-66
2022/01/16 12:39:51;;;;;;;44.87;35.27;;;;;;;;;;6256875;28;20207;-66
2022/01/16 12:42:53;;;;;;;45.28;34.42;;;;;;;;;;6258771;28;20911;-66
2022/01/16 12:45:55;;;;;;;44.50;35.33;;;;;;;;;;6256664;28;20482;-67
2022/01/16 12:49:02;;;;;;;43.55;35.22;;;;;;;;;;6256765;28;20053;-67
2022/01/16 12:52:05;;;;;;;43.05;33.38;;;;;;;;;;6258251;28;20413;-67
2022/01/16 12:55:07;;;;;;;43.78;32.22;;;;;;;;;;6256679;28;20536;-66
2022/01/16 12:58:16;;;;;;;42.17;32.90;;;;;;;;;;6258529;28;20497;-68
2022/01/16 13:01:18;;;;;;;42.90;34.20;;;;;;;;;;6248521;28;20056;-68
2022/01/16 13:04:27;;;;;;;42.58;32.05;;;;;;;;;;6257191;28;20210;-67
2022/01/16 13:07:30;;;;;;;41.50;30.33;;;;;;;;;;6254643;28;20406;-68
2022/01/16 13:10:31;;;;;;;40.60;28.67;;;;;;;;;;6258032;28;20075;-67
2022/01/16 13:13:33;;;;;;;37.13;28.73;;;;;;;;;;6256697;28;20128;-68
2022/01/16 13:16:37;;;;;;;41.22;29.02;;;;;;;;;;6255570;28;20064;-68
2022/01/16 13:19:49;;;;;;;;;;;;;;;;;;6260224;28;20118;-67
2022/01/16 13:22:57;;;;;;;37.80;28.75;;;;;;;;;;6259280;28;20345;-67
2022/01/16 13:25:58;;;;;;;41.55;28.98;;;;;;;;;;6258842;28;20045;-67
2022/01/16 13:29:01;;;;;;;37.22;27.40;;;;;;;;;;6260151;28;20094;-67
2022/01/16 13:32:04;;;;;;;39.63;29.02;;;;;;;;;;6257825;28;20139;-66
2022/01/16 13:35:18;;;;;;;39.05;27.95;;;;;;;;;;6259514;28;20051;-68
2022/01/16 13:38:30;;;;;;;38.55;28.10;;;;;;;;;;6258543;28;20132;-67
2022/01/16 13:41:31;;;;;;;42.17;29.02;;;;;;;;;;6255989;28;20552;-66
2022/01/16 13:44:33;;;;;;;39.47;27.73;;;;;;;;;;6256894;28;20057;-67
2022/01/16 13:47:35;;;;;;;38.88;26.95;;;;;;;;;;6254687;28;20571;-67
2022/01/16 13:50:42;;;;;;;35.40;27.70;;;;;;;;;;6252409;28;20052;-66
2022/01/16 13:53:45;;;;;;;36.05;26.73;;;;;;;;;;6251562;28;20183;-66
2022/01/16 13:56:51;;;;;;;35.40;26.88;;;;;;;;;;6251187;28;20128;-67
2022/01/16 13:59:57;;;;;;;38.40;27.65;;;;;;;;;;6253360;28;20056;-68
2022/01/16 14:03:14;;;;;;;36.22;26.65;;;;;;;;;;6256154;28;20103;-68
2022/01/16 14:06:16;;;;;;;38.60;28.08;;;;;;;;;;6257883;28;20171;-67
2022/01/16 14:09:22;;;;;;;40.58;27.10;;;;;;;;;;6254498;28;20386;-68
2022/01/16 14:12:23;;;;;;;37.53;27.63;;;;;;;;;;6258384;28;20053;-68
2022/01/16 14:15:25;;;;;;;37.45;27.58;;;;;;;;;;6258879;28;20133;-66
2022/01/16 14:18:40;;;;;;;39.08;27.52;;;;;;;;;;6264601;28;20130;-68
2022/01/16 14:22:09;;;;;;;37.28;27.98;;;;;;;;;;6258141;28;20037;-67
2022/01/16 14:25:12;;;;;;;38.67;27.48;;;;;;;;;;6254244;28;20071;-68
2022/01/16 14:28:14;;;;;;;38.70;27.17;;;;;;;;;;6263028;28;20162;-67
2022/01/16 14:31:16;;;;;;;38.80;28.23;;;;;;;;;;6256365;28;20248;-67
2022/01/16 14:34:17;;;;;;;41.75;29.38;;;;;;;;;;6260688;28;20041;-67
2022/01/16 14:37:19;;;;;;;39.88;27.35;;;;;;;;;;6260420;28;20045;-65
2022/01/16 14:40:22;;;;;;;39.45;27.30;;;;;;;;;;6250730;28;20186;-65
2022/01/16 14:43:24;;;;;;;38.97;26.77;;;;;;;;;;6257148;28;20549;-65
2022/01/16 14:46:28;;;;;;;38.67;26.88;;;;;;;;;;6254165;28;20154;-65
2022/01/16 14:49:30;;;;;;;38.28;26.52;;;;;;;;;;6258254;28;20118;-66
2022/01/16 14:52:31;;;;;;;39.38;26.00;;;;;;;;;;6256902;28;20132;-65
2022/01/16 14:55:37;;;;;;;37.42;24.95;;;;;;;;;;6259093;28;20041;-63
2022/01/16 14:58:38;;;;;;;38.05;24.20;;;;;;;;;;6256883;28;20045;-65
2022/01/16 15:01:41;;;;;;;39.08;25.70;;;;;;;;;;6253131;28;20123;-65
2022/01/16 15:04:43;;;;;;;37.13;25.05;;;;;;;;;;6259039;28;20053;-64
2022/01/16 15:07:45;;;;;;;34.53;24.17;;;;;;;;;;6261105;28;20088;-64
2022/01/16 15:10:48;;;;;;;34.75;23.83;;;;;;;;;;6253463;28;20418;-65
2022/01/16 15:13:49;;;;;;;42.40;26.30;;;;;;;;;;6254294;28;20492;-65
2022/01/16 15:16:55;;;;;;;38.90;26.70;;;;;;;;;;6258333;28;20985;-65
2022/01/16 15:20:03;;;;;;;41.25;26.42;;;;;;;;;;6258374;28;20544;-66
2022/01/16 15:23:04;;;;;;;42.17;28.17;;;;;;;;;;6256736;28;20045;-66
2022/01/16 15:26:07;;;;;;;39.45;26.88;;;;;;;;;;6254094;28;20093;-64
2022/01/16 15:29:11;;;;;;;43.03;28.00;;;;;;;;;;6260445;28;20509;-65
2022/01/16 15:32:12;;;;;;;42.38;26.30;;;;;;;;;;6259009;28;20045;-66
2022/01/16 15:35:17;;;;;;;43.25;27.05;;;;;;;;;;6255014;28;20107;-65
2022/01/16 15:38:26;;;;;;;43.83;28.50;;;;;;;;;;6252293;28;20168;-64
2022/01/16 15:41:29;;;;;;;42.63;28.67;;;;;;;;;;6249052;28;20056;-65
2022/01/16 15:44:32;;;;;;;43.30;29.95;;;;;;;;;;6248389;28;20079;-65
2022/01/16 15:47:33;;;;;;;41.28;28.77;;;;;;;;;;6250064;28;20131;-66
2022/01/16 15:50:35;;;;;;;40.63;28.52;;;;;;;;;;6255893;28;20107;-66
2022/01/16 15:53:36;;;;;;;40.70;28.45;;;;;;;;;;6251088;28;20168;-66
2022/01/16 15:56:40;;;;;;;42.50;29.60;;;;;;;;;;6262721;28;20132;-66
2022/01/16 15:59:41;;;;;;;42.95;27.40;;;;;;;;;;6250384;28;20042;-66
2022/01/16 16:02:45;;;;;;;41.67;28.48;;;;;;;;;;6250297;28;20127;-65
2022/01/16 16:05:46;;;;;;;41.03;27.33;;;;;;;;;;6253167;28;20034;-64
2022/01/16 16:08:48;;;;;;;42.38;27.08;;;;;;;;;;6262438;28;20488;-66
2022/01/16 16:11:51;;;;;;;43.88;26.77;;;;;;;;;;6251250;28;20107;-66
2022/01/16 16:14:53;;;;;;;38.53;24.83;;;;;;;;;;6256302;28;20401;-66
2022/01/16 16:17:55;;;;;;;41.42;25.02;;;;;;;;;;6253211;28;20052;-65
2022/01/16 16:20:57;;;;;;;39.00;23.63;;;;;;;;;;6252384;28;20488;-65
2022/01/16 16:23:58;;;;;;;41.92;23.80;;;;;;;;;;6252468;28;20132;-65
2022/01/16 16:27:01;;;;;;;42.10;24.40;;;;;;;;;;6255516;28;20057;-65
2022/01/16 16:30:04;;;;;;;37.97;23.02;;;;;;;;;;6257589;28;20143;-66
2022/01/16 16:33:06;;;;;;;44.05;22.92;;;;;;;;;;6254040;28;20076;-64
2022/01/16 16:36:07;;;;;;;37.08;22.33;;;;;;;;;;6256213;28;20040;-66
2022/01/16 16:39:10;;;;;;;38.10;22.00;;;;;;;;;;6262816;28;20193;-65
2022/01/16 16:42:15;;;;;;;40.05;22.52;;;;;;;;;;6257896;28;20052;-65
2022/01/16 16:45:17;;;;;;;40.13;21.83;;;;;;;;;;6255675;28;20138;-66
2022/01/16 16:48:19;;;;;;;33.95;21.15;;;;;;;;;;6252267;28;20109;-66
2022/01/16 16:51:20;;;;;;;38.00;20.33;;;;;;;;;;6265397;28;20068;-66
2022/01/16 16:54:22;;;;;;;36.55;21.88;;;;;;;;;;6248902;28;20162;-66
2022/01/16 16:57:25;;;;;;;35.50;20.65;;;;;;;;;;6251203;28;20194;-66
2022/01/16 17:00:27;;;;;;;36.23;20.47;;;;;;;;;;6252665;28;20429;-66
2022/01/16 17:03:28;;;;;;;32.80;19.33;;;;;;;;;;6253147;28;20440;-66
2022/01/16 17:06:30;;;;;;;33.03;20.00;;;;;;;;;;6252940;28;20131;-65
2022/01/16 17:09:32;;;;;;;37.25;20.83;;;;;;;;;;6251981;28;20076;-66
2022/01/16 17:12:35;;;;;;;37.78;21.92;;;;;;;;;;6255558;28;20514;-67
2022/01/16 17:15:39;;;;;;;32.00;17.27;;;;;;;;;;6254622;28;20052;-66
2022/01/16 17:18:40;;;;;;;;;;;;;;;;;;6254144;28;20084;-66
2022/01/16 17:21:42;;;;;;;28.67;17.05;;;;;;;;;;6255390;28;19940;-66
2022/01/16 17:24:44;;;;;;;33.22;18.15;;;;;;;;;;6256149;28;20096;-67
2022/01/16 17:27:47;;;;;;;31.17;17.75;;;;;;;;;;6259117;28;20543;-66
2022/01/16 17:30:49;;;;;;;33.85;17.95;;;;;;;;;;6257863;28;20124;-67
2022/01/16 17:33:51;;;;;;;33.90;17.95;;;;;;;;;;6255601;28;20045;-66
2022/01/16 17:36:52;;;;;;;29.40;17.83;;;;;;;;;;6253362;28;20463;-67
2022/01/16 17:39:54;;;;;;;31.70;17.73;;;;;;;;;;6248557;28;20107;-66
2022/01/16 17:42:57;;;;;;;31.17;16.70;;;;;;;;;;6251003;28;20152;-66
2022/01/16 17:45:59;;;;;;;27.23;16.77;;;;;;;;;;6253135;28;20187;-66
2022/01/16 17:49:00;;;;;;;32.15;16.00;;;;;;;;;;6259571;28;20049;-66
2022/01/16 17:52:02;;;;;;;26.17;15.55;;;;;;;;;;6255747;28;20509;-66
2022/01/16 17:55:05;;;;;;;26.63;15.27;;;;;;;;;;6255213;28;20123;-66
2022/01/16 17:58:08;;;;;;;26.40;15.95;;;;;;;;;;6259917;28;20158;-66
2022/01/16 18:01:10;;;;;;;32.33;16.40;;;;;;;;;;6256709;28;20388;-66
2022/01/16 18:04:11;;;;;;;30.38;16.45;;;;;;;;;;6258948;28;20081;-66
2022/01/16 18:07:13;;;;;;;27.27;15.70;;;;;;;;;;6260167;28;20504;-66
2022/01/16 18:10:18;;;;;;;31.77;16.27;;;;;;;;;;6257841;28;20060;-67
2022/01/16 18:13:21;;;;;;;28.17;15.27;;;;;;;;;;6260284;28;20045;-66
2022/01/16 18:16:22;;;;;;;28.00;16.02;;;;;;;;;;6254312;28;20065;-66
2022/01/16 18:19:24;;;;;;;26.50;15.18;;;;;;;;;;6258204;28;20099;-66
2022/01/16 18:22:25;;;;;;;27.00;15.07;;;;;;;;;;6264259;28;20529;-66